sensor_id;sensor_type;location;lat;lon;timestamp;temperature;humidity
43089;DHT22;28709;52.030;5.652;2023-04-07T00:01:35;8.80;99.90
43089;DHT22;28709;52.030;5.652;2023-04-07T00:04:00;8.80;99.90
43089;DHT22;28709;52.030;5.652;2023-04-07T00:06:26;8.80;99.90
43089;DHT22;28709;52.030;5.652;2023-04-07T00:08:53;8.80;99.90
43089;DHT22;28709;52.030;5.652;2023-04-07T00:11:18;8.80;99.90
43089;DHT22;28709;52.030;5.652;2023-04-07T00:13:44;8.80;99.90
43089;DHT22;28709;52.030;5.652;2023-04-07T00:16:10;8.80;99.90
43089;DHT22;28709;52.030;5.652;2023-04-07T00:18:36;8.80;99.90
43089;DHT22;28709;52.030;5.652;2023-04-07T00:21:01;8.80;99.90
43089;DHT22;28709;52.030;5.652;2023-04-07T00:23:27;8.80;99.90
43089;DHT22;28709;52.030;5.652;2023-04-07T00:25:52;8.70;99.90
43089;DHT22;28709;52.030;5.652;2023-04-07T00:28:18;8.70;99.90
43089;DHT22;28709;52.030;5.652;2023-04-07T00:30:44;8.70;99.90
43089;DHT22;28709;52.030;5.652;2023-04-07T00:33:09;8.60;99.90
43089;DHT22;28709;52.030;5.652;2023-04-07T00:35:35;8.60;99.90
43089;DHT22;28709;52.030;5.652;2023-04-07T00:38:01;8.60;99.90
43089;DHT22;28709;52.030;5.652;2023-04-07T00:40:27;8.60;99.90
43089;DHT22;28709;52.030;5.652;2023-04-07T00:42:52;8.50;99.90
43089;DHT22;28709;52.030;5.652;2023-04-07T00:45:18;8.50;99.90
43089;DHT22;28709;52.030;5.652;2023-04-07T00:47:44;8.50;99.90
43089;DHT22;28709;52.030;5.652;2023-04-07T00:50:10;8.50;99.90
43089;DHT22;28709;52.030;5.652;2023-04-07T00:52:35;8.50;99.90
43089;DHT22;28709;52.030;5.652;2023-04-07T00:55:01;8.50;99.90
43089;DHT22;28709;52.030;5.652;2023-04-07T00:57:27;8.50;99.90
43089;DHT22;28709;52.030;5.652;2023-04-07T00:59:54;8.50;99.90
43089;DHT22;28709;52.030;5.652;2023-04-07T01:05:15;8.40;99.90
43089;DHT22;28709;52.030;5.652;2023-04-07T01:10:36;8.40;99.90
43089;DHT22;28709;52.030;5.652;2023-04-07T01:13:32;8.40;99.90
43089;DHT22;28709;52.030;5.652;2023-04-07T01:15:57;8.40;99.90
43089;DHT22;28709;52.030;5.652;2023-04-07T01:18:31;8.40;99.90
43089;DHT22;28709;52.030;5.652;2023-04-07T01:21:05;8.40;99.90
43089;DHT22;28709;52.030;5.652;2023-04-07T01:26:29;8.40;99.90
43089;DHT22;28709;52.030;5.652;2023-04-07T01:29:28;8.40;99.90
43089;DHT22;28709;52.030;5.652;2023-04-07T01:31:58;8.30;99.90
43089;DHT22;28709;52.030;5.652;2023-04-07T01:34:26;8.30;99.90
43089;DHT22;28709;52.030;5.652;2023-04-07T01:36:54;8.30;99.90
43089;DHT22;28709;52.030;5.652;2023-04-07T01:39:21;8.30;99.90
43089;DHT22;28709;52.030;5.652;2023-04-07T01:41:49;8.30;99.90
43089;DHT22;28709;52.030;5.652;2023-04-07T01:44:17;8.30;99.90
43089;DHT22;28709;52.030;5.652;2023-04-07T01:46:44;8.30;99.90
43089;DHT22;28709;52.030;5.652;2023-04-07T01:49:11;8.30;99.90
43089;DHT22;28709;52.030;5.652;2023-04-07T01:51:38;8.40;99.90
43089;DHT22;28709;52.030;5.652;2023-04-07T01:54:05;8.30;99.90
43089;DHT22;28709;52.030;5.652;2023-04-07T01:56:31;8.30;99.90
43089;DHT22;28709;52.030;5.652;2023-04-07T01:58:57;8.30;99.90
43089;DHT22;28709;52.030;5.652;2023-04-07T02:01:23;8.30;99.90
43089;DHT22;28709;52.030;5.652;2023-04-07T02:04:01;8.30;99.90
43089;DHT22;28709;52.030;5.652;2023-04-07T02:06:34;8.30;99.90
43089;DHT22;28709;52.030;5.652;2023-04-07T02:09:05;8.30;99.90
43089;DHT22;28709;52.030;5.652;2023-04-07T02:11:31;8.30;99.90
43089;DHT22;28709;52.030;5.652;2023-04-07T02:14:00;8.30;99.90
43089;DHT22;28709;52.030;5.652;2023-04-07T02:16:29;8.30;99.90
43089;DHT22;28709;52.030;5.652;2023-04-07T02:18:56;8.30;99.90
43089;DHT22;28709;52.030;5.652;2023-04-07T02:21:23;8.30;99.90
43089;DHT22;28709;52.030;5.652;2023-04-07T02:23:50;8.30;99.90
43089;DHT22;28709;52.030;5.652;2023-04-07T02:26:16;8.30;99.90
43089;DHT22;28709;52.030;5.652;2023-04-07T02:28:41;8.30;99.90
43089;DHT22;28709;52.030;5.652;2023-04-07T02:31:07;8.30;99.90
43089;DHT22;28709;52.030;5.652;2023-04-07T02:33:33;8.30;99.90
43089;DHT22;28709;52.030;5.652;2023-04-07T02:35:58;8.30;99.90
43089;DHT22;28709;52.030;5.652;2023-04-07T02:38:24;8.30;99.90
43089;DHT22;28709;52.030;5.652;2023-04-07T02:40:50;8.30;99.90
43089;DHT22;28709;52.030;5.652;2023-04-07T02:43:15;8.30;99.90
43089;DHT22;28709;52.030;5.652;2023-04-07T02:45:42;8.30;99.90
43089;DHT22;28709;52.030;5.652;2023-04-07T02:48:08;8.30;99.90
43089;DHT22;28709;52.030;5.652;2023-04-07T02:50:33;8.30;99.90
43089;DHT22;28709;52.030;5.652;2023-04-07T02:52:59;8.40;99.90
43089;DHT22;28709;52.030;5.652;2023-04-07T02:55:25;8.40;99.90
43089;DHT22;28709;52.030;5.652;2023-04-07T02:57:50;8.40;99.90
43089;DHT22;28709;52.030;5.652;2023-04-07T03:00:16;8.40;99.90
43089;DHT22;28709;52.030;5.652;2023-04-07T03:02:42;8.40;99.90
43089;DHT22;28709;52.030;5.652;2023-04-07T03:05:07;8.40;99.90
43089;DHT22;28709;52.030;5.652;2023-04-07T03:07:33;8.40;99.90
43089;DHT22;28709;52.030;5.652;2023-04-07T03:09:59;8.40;99.90
43089;DHT22;28709;52.030;5.652;2023-04-07T03:12:24;8.40;99.90
43089;DHT22;28709;52.030;5.652;2023-04-07T03:14:50;8.40;99.90
43089;DHT22;28709;52.030;5.652;2023-04-07T03:17:16;8.40;99.90
43089;DHT22;28709;52.030;5.652;2023-04-07T03:19:41;8.40;99.90
43089;DHT22;28709;52.030;5.652;2023-04-07T03:22:07;8.40;99.90
43089;DHT22;28709;52.030;5.652;2023-04-07T03:24:33;8.40;99.90
43089;DHT22;28709;52.030;5.652;2023-04-07T03:26:58;8.40;99.90
43089;DHT22;28709;52.030;5.652;2023-04-07T03:29:24;8.40;99.90
43089;DHT22;28709;52.030;5.652;2023-04-07T03:31:50;8.40;99.90
43089;DHT22;28709;52.030;5.652;2023-04-07T03:34:15;8.40;99.90
43089;DHT22;28709;52.030;5.652;2023-04-07T03:36:41;8.40;99.90
43089;DHT22;28709;52.030;5.652;2023-04-07T03:39:06;8.40;99.90
43089;DHT22;28709;52.030;5.652;2023-04-07T03:41:32;8.40;99.90
43089;DHT22;28709;52.030;5.652;2023-04-07T03:43:58;8.50;99.90
43089;DHT22;28709;52.030;5.652;2023-04-07T03:46:23;8.40;99.90
43089;DHT22;28709;52.030;5.652;2023-04-07T03:48:51;8.50;99.90
43089;DHT22;28709;52.030;5.652;2023-04-07T03:51:17;8.50;99.90
43089;DHT22;28709;52.030;5.652;2023-04-07T03:53:43;8.40;99.90
43089;DHT22;28709;52.030;5.652;2023-04-07T03:56:08;8.50;99.90
43089;DHT22;28709;52.030;5.652;2023-04-07T03:58:34;8.50;99.90
43089;DHT22;28709;52.030;5.652;2023-04-07T04:01:00;8.40;99.90
43089;DHT22;28709;52.030;5.652;2023-04-07T04:03:26;8.40;99.90
43089;DHT22;28709;52.030;5.652;2023-04-07T04:05:51;8.40;99.90
43089;DHT22;28709;52.030;5.652;2023-04-07T04:08:17;8.40;99.90
43089;DHT22;28709;52.030;5.652;2023-04-07T04:10:42;8.40;99.90
43089;DHT22;28709;52.030;5.652;2023-04-07T04:13:08;8.40;99.90
43089;DHT22;28709;52.030;5.652;2023-04-07T04:15:34;8.40;99.90
43089;DHT22;28709;52.030;5.652;2023-04-07T04:18:00;8.40;99.90
43089;DHT22;28709;52.030;5.652;2023-04-07T04:20:25;8.40;99.90
43089;DHT22;28709;52.030;5.652;2023-04-07T04:22:51;8.40;99.90
43089;DHT22;28709;52.030;5.652;2023-04-07T04:25:17;8.50;99.90
43089;DHT22;28709;52.030;5.652;2023-04-07T04:27:42;8.40;99.90
43089;DHT22;28709;52.030;5.652;2023-04-07T04:30:08;8.50;99.90
43089;DHT22;28709;52.030;5.652;2023-04-07T04:32:33;8.40;99.90
43089;DHT22;28709;52.030;5.652;2023-04-07T04:34:59;8.50;99.90
43089;DHT22;28709;52.030;5.652;2023-04-07T04:37:26;8.40;99.90
43089;DHT22;28709;52.030;5.652;2023-04-07T04:39:52;8.50;99.90
43089;DHT22;28709;52.030;5.652;2023-04-07T04:42:18;8.50;99.90
43089;DHT22;28709;52.030;5.652;2023-04-07T04:44:43;8.40;99.90
43089;DHT22;28709;52.030;5.652;2023-04-07T04:47:09;8.40;99.90
43089;DHT22;28709;52.030;5.652;2023-04-07T04:49:35;8.40;99.90
43089;DHT22;28709;52.030;5.652;2023-04-07T04:52:01;8.40;99.90
43089;DHT22;28709;52.030;5.652;2023-04-07T04:54:26;8.40;99.90
43089;DHT22;28709;52.030;5.652;2023-04-07T04:56:52;8.40;99.90
43089;DHT22;28709;52.030;5.652;2023-04-07T04:59:18;8.40;99.90
43089;DHT22;28709;52.030;5.652;2023-04-07T05:01:43;8.40;99.90
43089;DHT22;28709;52.030;5.652;2023-04-07T05:04:09;8.40;99.90
43089;DHT22;28709;52.030;5.652;2023-04-07T05:06:35;8.40;99.90
43089;DHT22;28709;52.030;5.652;2023-04-07T05:09:00;8.40;99.90
43089;DHT22;28709;52.030;5.652;2023-04-07T05:11:26;8.40;99.90
43089;DHT22;28709;52.030;5.652;2023-04-07T05:13:52;8.40;99.90
43089;DHT22;28709;52.030;5.652;2023-04-07T05:16:17;8.40;99.90
43089;DHT22;28709;52.030;5.652;2023-04-07T05:18:43;8.40;99.90
43089;DHT22;28709;52.030;5.652;2023-04-07T05:21:09;8.50;99.90
43089;DHT22;28709;52.030;5.652;2023-04-07T05:23:35;8.50;99.90
43089;DHT22;28709;52.030;5.652;2023-04-07T05:26:01;8.50;99.90
43089;DHT22;28709;52.030;5.652;2023-04-07T05:28:26;8.50;99.90
43089;DHT22;28709;52.030;5.652;2023-04-07T05:30:52;8.50;99.90
43089;DHT22;28709;52.030;5.652;2023-04-07T05:33:19;8.50;99.90
43089;DHT22;28709;52.030;5.652;2023-04-07T05:35:45;8.50;99.90
43089;DHT22;28709;52.030;5.652;2023-04-07T05:38:11;8.50;99.90
43089;DHT22;28709;52.030;5.652;2023-04-07T05:40:38;8.50;99.90
43089;DHT22;28709;52.030;5.652;2023-04-07T05:43:04;8.50;99.90
43089;DHT22;28709;52.030;5.652;2023-04-07T05:45:30;8.50;99.90
43089;DHT22;28709;52.030;5.652;2023-04-07T05:47:55;8.50;99.90
43089;DHT22;28709;52.030;5.652;2023-04-07T05:50:21;8.50;99.90
43089;DHT22;28709;52.030;5.652;2023-04-07T05:52:46;8.50;99.90
43089;DHT22;28709;52.030;5.652;2023-04-07T05:55:12;8.50;99.90
43089;DHT22;28709;52.030;5.652;2023-04-07T05:57:38;8.50;99.90
43089;DHT22;28709;52.030;5.652;2023-04-07T06:00:04;8.50;99.90
43089;DHT22;28709;52.030;5.652;2023-04-07T06:02:30;8.40;99.90
43089;DHT22;28709;52.030;5.652;2023-04-07T06:04:55;8.40;99.90
43089;DHT22;28709;52.030;5.652;2023-04-07T06:07:21;8.40;99.90
43089;DHT22;28709;52.030;5.652;2023-04-07T06:09:47;8.30;99.90
43089;DHT22;28709;52.030;5.652;2023-04-07T06:12:12;8.30;99.90
43089;DHT22;28709;52.030;5.652;2023-04-07T06:14:39;8.30;99.90
43089;DHT22;28709;52.030;5.652;2023-04-07T06:17:05;8.40;99.90
43089;DHT22;28709;52.030;5.652;2023-04-07T06:19:31;8.40;99.90
43089;DHT22;28709;52.030;5.652;2023-04-07T06:21:57;8.40;99.90
43089;DHT22;28709;52.030;5.652;2023-04-07T06:24:22;8.40;99.90
43089;DHT22;28709;52.030;5.652;2023-04-07T06:26:50;8.50;99.90
43089;DHT22;28709;52.030;5.652;2023-04-07T06:29:16;8.60;99.90
43089;DHT22;28709;52.030;5.652;2023-04-07T06:31:42;8.70;99.90
43089;DHT22;28709;52.030;5.652;2023-04-07T06:34:08;8.70;99.90
43089;DHT22;28709;52.030;5.652;2023-04-07T06:36:33;8.80;99.90
43089;DHT22;28709;52.030;5.652;2023-04-07T06:38:59;8.80;99.90
43089;DHT22;28709;52.030;5.652;2023-04-07T06:41:25;8.90;99.90
43089;DHT22;28709;52.030;5.652;2023-04-07T06:43:51;8.90;99.90
43089;DHT22;28709;52.030;5.652;2023-04-07T06:46:17;8.90;99.90
43089;DHT22;28709;52.030;5.652;2023-04-07T06:48:43;8.90;99.90
43089;DHT22;28709;52.030;5.652;2023-04-07T06:51:09;8.90;99.90
43089;DHT22;28709;52.030;5.652;2023-04-07T06:53:35;8.80;99.90
43089;DHT22;28709;52.030;5.652;2023-04-07T06:56:06;8.80;99.90
43089;DHT22;28709;52.030;5.652;2023-04-07T06:58:32;8.80;99.90
43089;DHT22;28709;52.030;5.652;2023-04-07T07:00:59;8.80;99.90
43089;DHT22;28709;52.030;5.652;2023-04-07T07:03:24;8.80;99.90
43089;DHT22;28709;52.030;5.652;2023-04-07T07:05:53;8.80;99.90
43089;DHT22;28709;52.030;5.652;2023-04-07T07:08:18;8.70;99.90
43089;DHT22;28709;52.030;5.652;2023-04-07T07:10:44;8.80;99.90
43089;DHT22;28709;52.030;5.652;2023-04-07T07:13:10;8.80;99.90
43089;DHT22;28709;52.030;5.652;2023-04-07T07:15:35;8.80;99.90
43089;DHT22;28709;52.030;5.652;2023-04-07T07:18:01;8.90;99.90
43089;DHT22;28709;52.030;5.652;2023-04-07T07:20:27;8.90;99.90
43089;DHT22;28709;52.030;5.652;2023-04-07T07:22:52;8.90;99.90
43089;DHT22;28709;52.030;5.652;2023-04-07T07:25:18;9.00;99.90
43089;DHT22;28709;52.030;5.652;2023-04-07T07:27:43;9.00;99.90
43089;DHT22;28709;52.030;5.652;2023-04-07T07:30:09;9.00;99.90
43089;DHT22;28709;52.030;5.652;2023-04-07T07:32:35;9.10;99.90
43089;DHT22;28709;52.030;5.652;2023-04-07T07:35:01;9.10;99.90
43089;DHT22;28709;52.030;5.652;2023-04-07T07:37:26;9.20;99.90
43089;DHT22;28709;52.030;5.652;2023-04-07T07:39:52;9.20;99.90
43089;DHT22;28709;52.030;5.652;2023-04-07T07:42:18;9.30;99.90
43089;DHT22;28709;52.030;5.652;2023-04-07T07:44:43;9.40;99.90
43089;DHT22;28709;52.030;5.652;2023-04-07T07:47:09;9.40;99.90
43089;DHT22;28709;52.030;5.652;2023-04-07T07:49:36;9.40;99.90
43089;DHT22;28709;52.030;5.652;2023-04-07T07:52:02;9.40;99.90
43089;DHT22;28709;52.030;5.652;2023-04-07T07:54:28;9.40;99.90
43089;DHT22;28709;52.030;5.652;2023-04-07T07:56:53;9.30;99.90
43089;DHT22;28709;52.030;5.652;2023-04-07T07:59:19;9.40;99.90
43089;DHT22;28709;52.030;5.652;2023-04-07T08:01:45;9.40;99.90
43089;DHT22;28709;52.030;5.652;2023-04-07T08:04:11;9.40;99.90
43089;DHT22;28709;52.030;5.652;2023-04-07T08:06:37;9.40;99.90
43089;DHT22;28709;52.030;5.652;2023-04-07T08:09:02;9.40;99.90
43089;DHT22;28709;52.030;5.652;2023-04-07T08:11:28;9.50;99.90
43089;DHT22;28709;52.030;5.652;2023-04-07T08:13:54;9.60;99.90
43089;DHT22;28709;52.030;5.652;2023-04-07T08:16:20;9.70;99.90
43089;DHT22;28709;52.030;5.652;2023-04-07T08:18:46;9.70;99.90
43089;DHT22;28709;52.030;5.652;2023-04-07T08:21:12;9.90;99.90
43089;DHT22;28709;52.030;5.652;2023-04-07T08:23:38;9.90;99.90
43089;DHT22;28709;52.030;5.652;2023-04-07T08:26:04;9.90;99.90
43089;DHT22;28709;52.030;5.652;2023-04-07T08:28:29;9.90;99.90
43089;DHT22;28709;52.030;5.652;2023-04-07T08:30:55;9.90;99.90
43089;DHT22;28709;52.030;5.652;2023-04-07T08:33:21;9.90;99.90
43089;DHT22;28709;52.030;5.652;2023-04-07T08:35:46;9.90;99.90
43089;DHT22;28709;52.030;5.652;2023-04-07T08:38:12;9.80;99.90
43089;DHT22;28709;52.030;5.652;2023-04-07T08:40:38;9.80;99.90
43089;DHT22;28709;52.030;5.652;2023-04-07T08:43:07;9.80;99.90
43089;DHT22;28709;52.030;5.652;2023-04-07T08:45:37;9.80;99.90
43089;DHT22;28709;52.030;5.652;2023-04-07T08:48:14;9.80;99.90
43089;DHT22;28709;52.030;5.652;2023-04-07T08:50:43;9.90;99.90
43089;DHT22;28709;52.030;5.652;2023-04-07T08:53:12;9.90;99.90
43089;DHT22;28709;52.030;5.652;2023-04-07T08:55:40;10.00;99.90
43089;DHT22;28709;52.030;5.652;2023-04-07T08:58:09;10.10;99.90
43089;DHT22;28709;52.030;5.652;2023-04-07T09:00:41;10.20;99.90
43089;DHT22;28709;52.030;5.652;2023-04-07T09:03:10;10.20;99.90
43089;DHT22;28709;52.030;5.652;2023-04-07T09:05:36;10.30;99.90
43089;DHT22;28709;52.030;5.652;2023-04-07T09:08:03;10.30;99.90
43089;DHT22;28709;52.030;5.652;2023-04-07T09:10:29;10.40;99.90
43089;DHT22;28709;52.030;5.652;2023-04-07T09:12:57;10.30;99.90
43089;DHT22;28709;52.030;5.652;2023-04-07T09:15:24;10.20;99.90
43089;DHT22;28709;52.030;5.652;2023-04-07T09:17:50;10.20;99.90
43089;DHT22;28709;52.030;5.652;2023-04-07T09:20:15;10.20;99.90
43089;DHT22;28709;52.030;5.652;2023-04-07T09:22:42;10.20;99.90
43089;DHT22;28709;52.030;5.652;2023-04-07T09:25:17;10.10;99.90
43089;DHT22;28709;52.030;5.652;2023-04-07T09:28:13;10.20;99.90
43089;DHT22;28709;52.030;5.652;2023-04-07T09:30:39;10.20;99.90
43089;DHT22;28709;52.030;5.652;2023-04-07T09:33:26;10.10;99.90
43089;DHT22;28709;52.030;5.652;2023-04-07T09:35:52;10.00;99.90
43089;DHT22;28709;52.030;5.652;2023-04-07T09:38:18;10.10;99.90
43089;DHT22;28709;52.030;5.652;2023-04-07T09:40:44;10.00;99.90
43089;DHT22;28709;52.030;5.652;2023-04-07T09:43:15;10.10;99.90
43089;DHT22;28709;52.030;5.652;2023-04-07T09:45:41;10.10;99.90
43089;DHT22;28709;52.030;5.652;2023-04-07T09:48:16;10.10;99.90
43089;DHT22;28709;52.030;5.652;2023-04-07T09:50:43;10.10;99.90
43089;DHT22;28709;52.030;5.652;2023-04-07T09:53:14;10.20;99.90
43089;DHT22;28709;52.030;5.652;2023-04-07T09:55:41;10.20;99.90
43089;DHT22;28709;52.030;5.652;2023-04-07T09:58:10;10.30;99.90
43089;DHT22;28709;52.030;5.652;2023-04-07T10:00:36;10.40;99.90
43089;DHT22;28709;52.030;5.652;2023-04-07T10:03:03;10.50;99.90
43089;DHT22;28709;52.030;5.652;2023-04-07T10:05:28;10.60;99.90
43089;DHT22;28709;52.030;5.652;2023-04-07T10:07:55;10.70;99.90
43089;DHT22;28709;52.030;5.652;2023-04-07T10:10:21;10.80;99.90
43089;DHT22;28709;52.030;5.652;2023-04-07T10:12:49;11.00;99.90
43089;DHT22;28709;52.030;5.652;2023-04-07T10:15:16;11.10;99.90
43089;DHT22;28709;52.030;5.652;2023-04-07T10:17:46;11.10;99.90
43089;DHT22;28709;52.030;5.652;2023-04-07T10:20:17;11.10;99.90
43089;DHT22;28709;52.030;5.652;2023-04-07T10:22:46;11.10;99.90
43089;DHT22;28709;52.030;5.652;2023-04-07T10:25:13;11.10;99.90
43089;DHT22;28709;52.030;5.652;2023-04-07T10:27:51;11.10;99.90
43089;DHT22;28709;52.030;5.652;2023-04-07T10:30:31;11.10;99.90
43089;DHT22;28709;52.030;5.652;2023-04-07T10:32:58;11.10;99.90
43089;DHT22;28709;52.030;5.652;2023-04-07T10:35:24;11.10;99.90
43089;DHT22;28709;52.030;5.652;2023-04-07T10:38:10;11.10;99.90
43089;DHT22;28709;52.030;5.652;2023-04-07T10:40:41;11.00;99.90
43089;DHT22;28709;52.030;5.652;2023-04-07T10:43:08;10.90;99.90
43089;DHT22;28709;52.030;5.652;2023-04-07T10:48:17;10.80;99.90
43089;DHT22;28709;52.030;5.652;2023-04-07T10:53:29;10.80;99.90
43089;DHT22;28709;52.030;5.652;2023-04-07T10:55:56;10.80;99.90
43089;DHT22;28709;52.030;5.652;2023-04-07T11:03:33;10.60;99.90
43089;DHT22;28709;52.030;5.652;2023-04-07T11:06:03;10.50;99.90
43089;DHT22;28709;52.030;5.652;2023-04-07T11:08:43;10.40;99.90
43089;DHT22;28709;52.030;5.652;2023-04-07T11:11:11;10.50;99.90
43089;DHT22;28709;52.030;5.652;2023-04-07T11:13:45;10.40;99.90
43089;DHT22;28709;52.030;5.652;2023-04-07T11:16:11;10.50;99.90
43089;DHT22;28709;52.030;5.652;2023-04-07T11:18:38;10.50;99.90
43089;DHT22;28709;52.030;5.652;2023-04-07T11:21:05;10.50;99.90
43089;DHT22;28709;52.030;5.652;2023-04-07T11:23:41;10.60;99.90
43089;DHT22;28709;52.030;5.652;2023-04-07T11:26:09;10.60;99.90
43089;DHT22;28709;52.030;5.652;2023-04-07T11:28:44;10.60;99.90
43089;DHT22;28709;52.030;5.652;2023-04-07T11:31:11;10.60;99.90
43089;DHT22;28709;52.030;5.652;2023-04-07T11:33:38;10.60;99.90
43089;DHT22;28709;52.030;5.652;2023-04-07T11:36:05;10.50;99.90
43089;DHT22;28709;52.030;5.652;2023-04-07T11:38:35;10.50;99.90
43089;DHT22;28709;52.030;5.652;2023-04-07T11:41:13;10.50;99.90
43089;DHT22;28709;52.030;5.652;2023-04-07T11:43:39;10.50;99.90
43089;DHT22;28709;52.030;5.652;2023-04-07T11:46:07;10.50;99.90
43089;DHT22;28709;52.030;5.652;2023-04-07T11:48:34;10.50;99.90
43089;DHT22;28709;52.030;5.652;2023-04-07T11:51:01;10.50;99.90
43089;DHT22;28709;52.030;5.652;2023-04-07T11:53:36;10.60;99.90
43089;DHT22;28709;52.030;5.652;2023-04-07T11:56:08;10.60;99.90
43089;DHT22;28709;52.030;5.652;2023-04-07T11:58:37;10.60;99.90
43089;DHT22;28709;52.030;5.652;2023-04-07T12:01:05;10.60;99.90
43089;DHT22;28709;52.030;5.652;2023-04-07T12:03:34;10.60;99.90
43089;DHT22;28709;52.030;5.652;2023-04-07T12:06:02;10.60;99.90
43089;DHT22;28709;52.030;5.652;2023-04-07T12:08:42;10.60;99.90
43089;DHT22;28709;52.030;5.652;2023-04-07T12:11:08;10.60;99.90
43089;DHT22;28709;52.030;5.652;2023-04-07T12:13:35;10.60;99.90
43089;DHT22;28709;52.030;5.652;2023-04-07T12:16:01;10.60;99.90
43089;DHT22;28709;52.030;5.652;2023-04-07T12:18:28;10.60;99.90
43089;DHT22;28709;52.030;5.652;2023-04-07T12:20:54;10.60;99.90
43089;DHT22;28709;52.030;5.652;2023-04-07T12:23:21;10.60;99.90
43089;DHT22;28709;52.030;5.652;2023-04-07T12:25:47;10.70;99.90
43089;DHT22;28709;52.030;5.652;2023-04-07T12:28:13;10.60;99.90
43089;DHT22;28709;52.030;5.652;2023-04-07T12:30:38;10.60;99.90
43089;DHT22;28709;52.030;5.652;2023-04-07T12:33:04;10.60;99.90
43089;DHT22;28709;52.030;5.652;2023-04-07T12:35:30;10.60;99.90
43089;DHT22;28709;52.030;5.652;2023-04-07T12:37:56;10.70;99.90
43089;DHT22;28709;52.030;5.652;2023-04-07T12:40:22;10.70;99.90
43089;DHT22;28709;52.030;5.652;2023-04-07T12:42:48;10.70;99.90
43089;DHT22;28709;52.030;5.652;2023-04-07T12:45:14;10.70;99.90
43089;DHT22;28709;52.030;5.652;2023-04-07T12:47:40;10.70;99.90
43089;DHT22;28709;52.030;5.652;2023-04-07T12:50:06;10.80;99.90
43089;DHT22;28709;52.030;5.652;2023-04-07T12:52:32;10.80;99.90
43089;DHT22;28709;52.030;5.652;2023-04-07T12:54:58;10.90;99.90
43089;DHT22;28709;52.030;5.652;2023-04-07T12:57:24;10.90;99.90
43089;DHT22;28709;52.030;5.652;2023-04-07T12:59:49;10.90;99.90
43089;DHT22;28709;52.030;5.652;2023-04-07T13:02:16;11.00;99.90
43089;DHT22;28709;52.030;5.652;2023-04-07T13:04:43;11.10;99.90
43089;DHT22;28709;52.030;5.652;2023-04-07T13:07:11;11.10;99.90
43089;DHT22;28709;52.030;5.652;2023-04-07T13:09:38;11.10;99.90
43089;DHT22;28709;52.030;5.652;2023-04-07T13:12:03;11.10;99.90
43089;DHT22;28709;52.030;5.652;2023-04-07T13:14:29;11.00;99.90
43089;DHT22;28709;52.030;5.652;2023-04-07T13:16:55;11.00;99.90
43089;DHT22;28709;52.030;5.652;2023-04-07T13:19:21;10.90;99.90
43089;DHT22;28709;52.030;5.652;2023-04-07T13:21:46;10.90;99.90
43089;DHT22;28709;52.030;5.652;2023-04-07T13:24:12;10.80;99.90
43089;DHT22;28709;52.030;5.652;2023-04-07T13:26:38;10.90;99.90
43089;DHT22;28709;52.030;5.652;2023-04-07T13:29:03;10.90;99.90
43089;DHT22;28709;52.030;5.652;2023-04-07T13:31:29;11.00;99.90
43089;DHT22;28709;52.030;5.652;2023-04-07T13:33:54;11.10;99.90
43089;DHT22;28709;52.030;5.652;2023-04-07T13:36:20;11.20;99.90
43089;DHT22;28709;52.030;5.652;2023-04-07T13:38:46;11.30;99.90
43089;DHT22;28709;52.030;5.652;2023-04-07T13:41:12;11.40;99.90
43089;DHT22;28709;52.030;5.652;2023-04-07T13:43:37;11.40;99.90
43089;DHT22;28709;52.030;5.652;2023-04-07T13:46:03;11.60;99.90
43089;DHT22;28709;52.030;5.652;2023-04-07T13:48:29;11.70;99.90
43089;DHT22;28709;52.030;5.652;2023-04-07T13:50:54;11.70;99.90
43089;DHT22;28709;52.030;5.652;2023-04-07T13:53:20;11.80;99.90
43089;DHT22;28709;52.030;5.652;2023-04-07T13:55:46;11.80;99.90
43089;DHT22;28709;52.030;5.652;2023-04-07T13:58:12;11.80;99.90
43089;DHT22;28709;52.030;5.652;2023-04-07T14:00:37;11.80;99.90
43089;DHT22;28709;52.030;5.652;2023-04-07T14:03:05;11.80;99.90
43089;DHT22;28709;52.030;5.652;2023-04-07T14:05:31;11.80;99.90
43089;DHT22;28709;52.030;5.652;2023-04-07T14:07:56;11.80;99.90
43089;DHT22;28709;52.030;5.652;2023-04-07T14:10:22;11.70;99.90
43089;DHT22;28709;52.030;5.652;2023-04-07T14:12:47;11.70;99.90
43089;DHT22;28709;52.030;5.652;2023-04-07T14:15:13;11.60;99.90
43089;DHT22;28709;52.030;5.652;2023-04-07T14:17:39;11.60;99.90
43089;DHT22;28709;52.030;5.652;2023-04-07T14:20:05;11.60;99.90
43089;DHT22;28709;52.030;5.652;2023-04-07T14:22:31;11.60;99.90
43089;DHT22;28709;52.030;5.652;2023-04-07T14:24:56;11.60;99.90
43089;DHT22;28709;52.030;5.652;2023-04-07T14:27:22;11.60;99.90
43089;DHT22;28709;52.030;5.652;2023-04-07T14:29:48;11.50;99.90
43089;DHT22;28709;52.030;5.652;2023-04-07T14:32:15;11.40;99.90
43089;DHT22;28709;52.030;5.652;2023-04-07T14:34:40;11.40;99.90
43089;DHT22;28709;52.030;5.652;2023-04-07T14:37:06;11.30;99.90
43089;DHT22;28709;52.030;5.652;2023-04-07T14:39:32;11.30;99.90
43089;DHT22;28709;52.030;5.652;2023-04-07T14:41:57;11.30;99.90
43089;DHT22;28709;52.030;5.652;2023-04-07T14:44:23;11.20;99.90
43089;DHT22;28709;52.030;5.652;2023-04-07T14:46:49;11.10;99.90
43089;DHT22;28709;52.030;5.652;2023-04-07T14:49:14;11.10;99.90
43089;DHT22;28709;52.030;5.652;2023-04-07T14:51:40;11.10;99.90
43089;DHT22;28709;52.030;5.652;2023-04-07T14:54:06;11.10;99.90
43089;DHT22;28709;52.030;5.652;2023-04-07T14:56:32;11.10;99.90
43089;DHT22;28709;52.030;5.652;2023-04-07T14:58:58;11.00;99.90
43089;DHT22;28709;52.030;5.652;2023-04-07T15:01:23;11.00;99.90
43089;DHT22;28709;52.030;5.652;2023-04-07T15:03:50;11.00;99.90
43089;DHT22;28709;52.030;5.652;2023-04-07T15:06:17;11.00;99.90
43089;DHT22;28709;52.030;5.652;2023-04-07T15:08:43;10.90;99.90
43089;DHT22;28709;52.030;5.652;2023-04-07T15:11:09;10.90;99.90
43089;DHT22;28709;52.030;5.652;2023-04-07T15:13:35;10.90;99.90
43089;DHT22;28709;52.030;5.652;2023-04-07T15:16:12;10.90;99.90
43089;DHT22;28709;52.030;5.652;2023-04-07T15:18:40;10.90;99.90
43089;DHT22;28709;52.030;5.652;2023-04-07T15:21:09;11.00;99.90
43089;DHT22;28709;52.030;5.652;2023-04-07T15:23:36;11.00;99.90
43089;DHT22;28709;52.030;5.652;2023-04-07T15:26:03;11.00;99.90
43089;DHT22;28709;52.030;5.652;2023-04-07T15:28:29;11.00;99.90
43089;DHT22;28709;52.030;5.652;2023-04-07T15:30:54;11.00;99.90
43089;DHT22;28709;52.030;5.652;2023-04-07T15:33:20;11.00;99.90
43089;DHT22;28709;52.030;5.652;2023-04-07T15:35:46;11.00;99.90
43089;DHT22;28709;52.030;5.652;2023-04-07T15:38:11;10.90;99.90
43089;DHT22;28709;52.030;5.652;2023-04-07T15:40:38;10.80;99.90
43089;DHT22;28709;52.030;5.652;2023-04-07T15:43:04;10.80;99.90
43089;DHT22;28709;52.030;5.652;2023-04-07T15:45:31;10.80;99.90
43089;DHT22;28709;52.030;5.652;2023-04-07T15:47:57;10.80;99.90
43089;DHT22;28709;52.030;5.652;2023-04-07T15:50:23;10.80;99.90
43089;DHT22;28709;52.030;5.652;2023-04-07T15:52:49;10.90;99.90
43089;DHT22;28709;52.030;5.652;2023-04-07T15:55:15;10.90;99.90
43089;DHT22;28709;52.030;5.652;2023-04-07T15:57:41;10.90;99.90